Grand Forks, ND

12:11 AM CDT on August 30, 2015 (GMT -0500)
APRSWXNET | | Change Station
CLOSE
Current Station
Personal Weather Station
Location: Grand Forks Air Force Base, ND
Elevation: 846 ft
Nearby Weather Stations

Elev 846 ft 47.89 °N, 97.16 °W | Updated 29 minutes ago

Partly Cloudy
Partly Cloudy
70 °F
Feels Like 70 °F
N
5
Wind Variable Wind from SSW
Gusts 8.0 mph

Today
High -- | Low -- °F
--% Chance of Precip.
Yesterday
High -- | Low -- °F
Precip. -- in
6:43 AM 8:13 PM
Full, 100% visible
Pressure 29.79 in
Visibility 10.0 miles
Clouds Clear
Dew Point 68 °F
Humidity 92%
Rainfall in
Snow Depth Not available.
UV 0 out of 12
Pollen 10.70 out of 12
Air Quality Not available.
Flu Activity Not available.
METAR KGFK 300453Z AUTO 18010KT 10SM CLR 21/19 A2980 RMK AO2 SLP088 T02110194 TSNO
Pressure 29.79 in
Visibility 10.0 miles
Clouds Clear
Dew Point 68 °F
Humidity 92%
Rainfall in
Snow Depth Not available.
UV 0 out of 12
Pollen 10.70 out of 12
Air Quality Not available.
Flu Activity Not available.
METAR KGFK 300453Z AUTO 18010KT 10SM CLR 21/19 A2980 RMK AO2 SLP088 T02110194 TSNO

10-Day Weather Forecast

×

Almanac

Astronomy

Aug. 30, 2015 Rise Set
Actual Time
Civil Twilight
Nautical Twilight
Astronomical Twilight
Moon
Length of Visible Light
Length of Day
Tomorrow will be .
, % of the Moon is Illuminated

Today's Extremes

State Highs State Lows

Community

WunderPhotos

Upload Photos

1,850,895 photos uploaded!

WunderBlogs® & News

Nearby

Air Quality

  Air Quality AQ Index Pollutant
Not available.

Snow Depth

Station Depth Elevation

Earthquake Activity

City Distance Mag. Time & Date
Minimum magnitude displayed is 2.5.

Coastal Water Temperatures

Place Temperature

Stations

Nearby Weather Stations

Station Location Temp. Windchill Dew Point Humidity Wind Precip. Elev Updated Type